sensor_id;sensor_type;location;lat;lon;timestamp;temperature;humidity
2653;DHT22;1336;48.692;9.144;2022-11-20T06:00:25;7.20;97.20
2653;DHT22;1336;48.692;9.144;2022-11-20T06:01:19;7.10;97.20
2653;DHT22;1336;48.692;9.144;2022-11-20T06:02:10;7.10;97.20
2653;DHT22;1336;48.692;9.144;2022-11-20T06:03:02;7.20;97.20
2653;DHT22;1336;48.692;9.144;2022-11-20T06:03:53;7.20;97.20
2653;DHT22;1336;48.692;9.144;2022-11-20T06:04:45;7.20;97.20
2653;DHT22;1336;48.692;9.144;2022-11-20T06:05:36;7.20;97.20
2653;DHT22;1336;48.692;9.144;2022-11-20T06:06:27;7.20;97.20
2653;DHT22;1336;48.692;9.144;2022-11-20T06:07:18;7.10;97.20
2653;DHT22;1336;48.692;9.144;2022-11-20T06:08:09;7.20;97.20
2653;DHT22;1336;48.692;9.144;2022-11-20T06:09:00;7.20;97.20
2653;DHT22;1336;48.692;9.144;2022-11-20T06:09:51;7.10;97.20
2653;DHT22;1336;48.692;9.144;2022-11-20T06:10:42;7.20;97.20
2653;DHT22;1336;48.692;9.144;2022-11-20T06:11:34;7.20;97.20
2653;DHT22;1336;48.692;9.144;2022-11-20T06:12:24;7.20;97.20
2653;DHT22;1336;48.692;9.144;2022-11-20T06:13:16;7.20;97.20
2653;DHT22;1336;48.692;9.144;2022-11-20T06:14:07;7.20;97.20
2653;DHT22;1336;48.692;9.144;2022-11-20T06:14:59;7.10;97.20
2653;DHT22;1336;48.692;9.144;2022-11-20T06:15:51;7.10;97.20
2653;DHT22;1336;48.692;9.144;2022-11-20T06:16:43;7.10;97.20
2653;DHT22;1336;48.692;9.144;2022-11-20T06:17:34;7.10;97.20
2653;DHT22;1336;48.692;9.144;2022-11-20T06:18:26;7.20;97.20
2653;DHT22;1336;48.692;9.144;2022-11-20T06:19:17;7.20;97.20
2653;DHT22;1336;48.692;9.144;2022-11-20T06:20:10;7.20;97.20
2653;DHT22;1336;48.692;9.144;2022-11-20T06:21:02;7.20;97.20
2653;DHT22;1336;48.692;9.144;2022-11-20T06:21:54;7.20;97.20
2653;DHT22;1336;48.692;9.144;2022-11-20T06:22:44;7.20;97.20
2653;DHT22;1336;48.692;9.144;2022-11-20T06:23:37;7.20;97.20
2653;DHT22;1336;48.692;9.144;2022-11-20T06:24:27;7.20;97.20
2653;DHT22;1336;48.692;9.144;2022-11-20T06:25:19;7.20;97.20
2653;DHT22;1336;48.692;9.144;2022-11-20T06:26:12;7.20;97.20
2653;DHT22;1336;48.692;9.144;2022-11-20T06:27:04;7.20;97.20
2653;DHT22;1336;48.692;9.144;2022-11-20T06:27:55;7.20;97.20
2653;DHT22;1336;48.692;9.144;2022-11-20T06:28:47;7.20;97.20
2653;DHT22;1336;48.692;9.144;2022-11-20T06:29:38;7.20;97.20
2653;DHT22;1336;48.692;9.144;2022-11-20T06:30:29;7.20;97.20
2653;DHT22;1336;48.692;9.144;2022-11-20T06:31:24;7.20;97.20
2653;DHT22;1336;48.692;9.144;2022-11-20T06:32:16;7.20;97.20
2653;DHT22;1336;48.692;9.144;2022-11-20T06:33:06;7.20;97.20
2653;DHT22;1336;48.692;9.144;2022-11-20T06:33:58;7.20;97.20
2653;DHT22;1336;48.692;9.144;2022-11-20T06:34:49;7.20;97.20
2653;DHT22;1336;48.692;9.144;2022-11-20T06:35:41;7.20;97.20
2653;DHT22;1336;48.692;9.144;2022-11-20T06:36:32;7.20;97.20
2653;DHT22;1336;48.692;9.144;2022-11-20T06:37:24;7.20;97.20
2653;DHT22;1336;48.692;9.144;2022-11-20T06:38:15;7.20;97.20
2653;DHT22;1336;48.692;9.144;2022-11-20T06:39:06;7.20;97.20
2653;DHT22;1336;48.692;9.144;2022-11-20T06:39:57;7.20;97.20
2653;DHT22;1336;48.692;9.144;2022-11-20T06:40:49;7.20;97.20
2653;DHT22;1336;48.692;9.144;2022-11-20T06:41:39;7.20;97.20
2653;DHT22;1336;48.692;9.144;2022-11-20T06:42:32;7.20;97.20
2653;DHT22;1336;48.692;9.144;2022-11-20T06:43:23;7.20;97.20
2653;DHT22;1336;48.692;9.144;2022-11-20T06:44:15;7.20;97.20
2653;DHT22;1336;48.692;9.144;2022-11-20T06:45:06;7.20;97.20
2653;DHT22;1336;48.692;9.144;2022-11-20T06:45:58;7.20;97.20
2653;DHT22;1336;48.692;9.144;2022-11-20T06:46:51;7.20;97.20
2653;DHT22;1336;48.692;9.144;2022-11-20T06:47:42;7.20;97.20
2653;DHT22;1336;48.692;9.144;2022-11-20T06:48:33;7.20;97.20
2653;DHT22;1336;48.692;9.144;2022-11-20T06:49:25;7.20;97.20
2653;DHT22;1336;48.692;9.144;2022-11-20T06:50:16;7.20;97.20
2653;DHT22;1336;48.692;9.144;2022-11-20T06:51:08;7.20;97.20
2653;DHT22;1336;48.692;9.144;2022-11-20T06:51:59;7.20;97.20
2653;DHT22;1336;48.692;9.144;2022-11-20T06:52:50;7.20;97.20
2653;DHT22;1336;48.692;9.144;2022-11-20T06:53:41;7.20;97.20
2653;DHT22;1336;48.692;9.144;2022-11-20T06:54:33;7.20;97.20
2653;DHT22;1336;48.692;9.144;2022-11-20T06:55:25;7.30;97.20
2653;DHT22;1336;48.692;9.144;2022-11-20T06:56:17;7.30;97.20
2653;DHT22;1336;48.692;9.144;2022-11-20T06:57:08;7.30;97.20
2653;DHT22;1336;48.692;9.144;2022-11-20T06:57:59;7.30;97.20
2653;DHT22;1336;48.692;9.144;2022-11-20T06:58:50;7.30;97.20
2653;DHT22;1336;48.692;9.144;2022-11-20T06:59:42;7.30;97.20
2653;DHT22;1336;48.692;9.144;2022-11-20T07:00:33;7.30;97.20
2653;DHT22;1336;48.692;9.144;2022-11-20T07:01:24;7.30;97.20
2653;DHT22;1336;48.692;9.144;2022-11-20T07:02:16;7.30;97.20
2653;DHT22;1336;48.692;9.144;2022-11-20T07:03:09;7.30;97.20
2653;DHT22;1336;48.692;9.144;2022-11-20T07:04:00;7.30;97.20
2653;DHT22;1336;48.692;9.144;2022-11-20T07:04:52;7.30;97.20
2653;DHT22;1336;48.692;9.144;2022-11-20T07:05:43;7.30;97.20
2653;DHT22;1336;48.692;9.144;2022-11-20T07:06:36;7.30;97.20
2653;DHT22;1336;48.692;9.144;2022-11-20T07:07:27;7.30;97.20
2653;DHT22;1336;48.692;9.144;2022-11-20T07:08:18;7.20;97.20
2653;DHT22;1336;48.692;9.144;2022-11-20T07:09:09;7.20;97.20
2653;DHT22;1336;48.692;9.144;2022-11-20T07:10:01;7.20;97.20
2653;DHT22;1336;48.692;9.144;2022-11-20T07:10:51;7.20;97.20
2653;DHT22;1336;48.692;9.144;2022-11-20T07:11:43;7.20;97.20
2653;DHT22;1336;48.692;9.144;2022-11-20T07:12:34;7.20;97.20
2653;DHT22;1336;48.692;9.144;2022-11-20T07:13:26;7.20;97.20
2653;DHT22;1336;48.692;9.144;2022-11-20T07:14:17;7.20;97.20
2653;DHT22;1336;48.692;9.144;2022-11-20T07:15:09;7.20;97.20
2653;DHT22;1336;48.692;9.144;2022-11-20T07:16:00;7.30;97.20
2653;DHT22;1336;48.692;9.144;2022-11-20T07:16:52;7.30;97.20
2653;DHT22;1336;48.692;9.144;2022-11-20T07:17:45;7.30;97.20
2653;DHT22;1336;48.692;9.144;2022-11-20T07:18:36;7.30;97.20
2653;DHT22;1336;48.692;9.144;2022-11-20T07:19:27;7.30;97.20
2653;DHT22;1336;48.692;9.144;2022-11-20T07:20:19;7.30;97.20
2653;DHT22;1336;48.692;9.144;2022-11-20T07:21:10;7.30;97.20
2653;DHT22;1336;48.692;9.144;2022-11-20T07:22:02;7.40;97.20
2653;DHT22;1336;48.692;9.144;2022-11-20T07:22:53;7.40;97.20
2653;DHT22;1336;48.692;9.144;2022-11-20T07:23:46;7.40;97.20
2653;DHT22;1336;48.692;9.144;2022-11-20T07:24:36;7.40;97.20
2653;DHT22;1336;48.692;9.144;2022-11-20T07:25:28;7.30;97.20
2653;DHT22;1336;48.692;9.144;2022-11-20T07:26:20;7.30;97.20
2653;DHT22;1336;48.692;9.144;2022-11-20T07:27:12;7.30;97.20
2653;DHT22;1336;48.692;9.144;2022-11-20T07:28:03;7.30;97.20
2653;DHT22;1336;48.692;9.144;2022-11-20T07:28:55;7.30;97.20
2653;DHT22;1336;48.692;9.144;2022-11-20T07:29:46;7.30;97.20
2653;DHT22;1336;48.692;9.144;2022-11-20T07:30:37;7.30;97.20
2653;DHT22;1336;48.692;9.144;2022-11-20T07:31:28;7.30;97.20
2653;DHT22;1336;48.692;9.144;2022-11-20T07:32:20;7.30;97.20
2653;DHT22;1336;48.692;9.144;2022-11-20T07:33:12;7.30;97.20
2653;DHT22;1336;48.692;9.144;2022-11-20T07:34:03;7.30;97.20
2653;DHT22;1336;48.692;9.144;2022-11-20T07:34:54;7.30;97.20
2653;DHT22;1336;48.692;9.144;2022-11-20T07:35:46;7.30;97.20
2653;DHT22;1336;48.692;9.144;2022-11-20T07:36:37;7.30;97.20
2653;DHT22;1336;48.692;9.144;2022-11-20T07:37:29;7.30;97.20
2653;DHT22;1336;48.692;9.144;2022-11-20T07:38:20;7.30;97.20
2653;DHT22;1336;48.692;9.144;2022-11-20T07:39:11;7.30;97.20
2653;DHT22;1336;48.692;9.144;2022-11-20T07:40:03;7.30;97.20
2653;DHT22;1336;48.692;9.144;2022-11-20T07:40:55;7.30;97.20
2653;DHT22;1336;48.692;9.144;2022-11-20T07:41:46;7.30;97.20
2653;DHT22;1336;48.692;9.144;2022-11-20T07:42:37;7.30;97.20
2653;DHT22;1336;48.692;9.144;2022-11-20T07:43:28;7.30;97.20
2653;DHT22;1336;48.692;9.144;2022-11-20T07:44:20;7.30;97.20
2653;DHT22;1336;48.692;9.144;2022-11-20T07:45:11;7.30;97.20
2653;DHT22;1336;48.692;9.144;2022-11-20T07:46:03;7.30;97.20
2653;DHT22;1336;48.692;9.144;2022-11-20T07:46:54;7.30;97.20
2653;DHT22;1336;48.692;9.144;2022-11-20T07:47:46;7.30;97.20
2653;DHT22;1336;48.692;9.144;2022-11-20T07:48:38;7.30;97.20
2653;DHT22;1336;48.692;9.144;2022-11-20T07:49:30;7.40;97.20
2653;DHT22;1336;48.692;9.144;2022-11-20T07:50:20;7.40;97.20
2653;DHT22;1336;48.692;9.144;2022-11-20T07:51:12;7.40;97.20
2653;DHT22;1336;48.692;9.144;2022-11-20T07:52:04;7.40;97.20
2653;DHT22;1336;48.692;9.144;2022-11-20T07:53:01;7.40;97.20
2653;DHT22;1336;48.692;9.144;2022-11-20T07:53:51;7.40;97.20
2653;DHT22;1336;48.692;9.144;2022-11-20T07:54:43;7.40;97.20
2653;DHT22;1336;48.692;9.144;2022-11-20T07:55:34;7.50;97.20
2653;DHT22;1336;48.692;9.144;2022-11-20T07:56:26;7.50;97.20
2653;DHT22;1336;48.692;9.144;2022-11-20T07:57:17;7.50;97.20
2653;DHT22;1336;48.692;9.144;2022-11-20T07:58:09;7.60;97.20
2653;DHT22;1336;48.692;9.144;2022-11-20T07:58:59;7.60;97.20
2653;DHT22;1336;48.692;9.144;2022-11-20T07:59:51;7.60;97.20
2653;DHT22;1336;48.692;9.144;2022-11-20T08:00:42;7.60;97.20
2653;DHT22;1336;48.692;9.144;2022-11-20T08:01:33;7.60;97.20
2653;DHT22;1336;48.692;9.144;2022-11-20T08:02:24;7.60;97.20
2653;DHT22;1336;48.692;9.144;2022-11-20T08:03:16;7.60;97.20
2653;DHT22;1336;48.692;9.144;2022-11-20T08:04:08;7.70;97.20
2653;DHT22;1336;48.692;9.144;2022-11-20T08:05:00;7.60;97.20
2653;DHT22;1336;48.692;9.144;2022-11-20T08:05:51;7.60;97.20
2653;DHT22;1336;48.692;9.144;2022-11-20T08:06:43;7.60;97.20
2653;DHT22;1336;48.692;9.144;2022-11-20T08:07:37;7.60;97.20
2653;DHT22;1336;48.692;9.144;2022-11-20T08:08:29;7.60;97.20
2653;DHT22;1336;48.692;9.144;2022-11-20T08:09:19;7.60;97.20
2653;DHT22;1336;48.692;9.144;2022-11-20T08:10:13;7.60;97.20
2653;DHT22;1336;48.692;9.144;2022-11-20T08:11:04;7.60;97.20
2653;DHT22;1336;48.692;9.144;2022-11-20T08:12:18;7.60;97.20
2653;DHT22;1336;48.692;9.144;2022-11-20T08:13:27;7.60;97.20
2653;DHT22;1336;48.692;9.144;2022-11-20T08:14:36;7.60;97.20
2653;DHT22;1336;48.692;9.144;2022-11-20T08:15:28;7.60;97.20
2653;DHT22;1336;48.692;9.144;2022-11-20T08:16:19;7.60;97.20
2653;DHT22;1336;48.692;9.144;2022-11-20T08:17:12;7.60;97.20
2653;DHT22;1336;48.692;9.144;2022-11-20T08:18:04;7.60;97.20
2653;DHT22;1336;48.692;9.144;2022-11-20T08:18:55;7.70;97.20
2653;DHT22;1336;48.692;9.144;2022-11-20T08:19:48;7.70;97.20
2653;DHT22;1336;48.692;9.144;2022-11-20T08:20:39;7.70;97.20
2653;DHT22;1336;48.692;9.144;2022-11-20T08:21:31;7.70;97.20
2653;DHT22;1336;48.692;9.144;2022-11-20T08:22:22;7.70;97.20
2653;DHT22;1336;48.692;9.144;2022-11-20T08:23:13;7.70;97.20
2653;DHT22;1336;48.692;9.144;2022-11-20T08:24:06;7.70;97.20
2653;DHT22;1336;48.692;9.144;2022-11-20T08:24:57;7.70;97.20
2653;DHT22;1336;48.692;9.144;2022-11-20T08:25:49;7.70;97.20
2653;DHT22;1336;48.692;9.144;2022-11-20T08:26:40;7.70;97.20
2653;DHT22;1336;48.692;9.144;2022-11-20T08:27:32;7.70;97.20
2653;DHT22;1336;48.692;9.144;2022-11-20T08:28:23;7.70;97.20
2653;DHT22;1336;48.692;9.144;2022-11-20T08:29:14;7.70;97.20
2653;DHT22;1336;48.692;9.144;2022-11-20T08:30:07;7.70;97.20
2653;DHT22;1336;48.692;9.144;2022-11-20T08:30:59;7.80;97.20
2653;DHT22;1336;48.692;9.144;2022-11-20T08:31:50;7.80;97.20
2653;DHT22;1336;48.692;9.144;2022-11-20T08:32:42;7.80;97.20
2653;DHT22;1336;48.692;9.144;2022-11-20T08:33:33;7.80;97.20
2653;DHT22;1336;48.692;9.144;2022-11-20T08:34:24;7.80;97.20
2653;DHT22;1336;48.692;9.144;2022-11-20T08:35:16;7.80;97.20
2653;DHT22;1336;48.692;9.144;2022-11-20T08:36:08;7.80;97.20
2653;DHT22;1336;48.692;9.144;2022-11-20T08:37:01;7.80;97.20
2653;DHT22;1336;48.692;9.144;2022-11-20T08:37:53;7.80;97.20
2653;DHT22;1336;48.692;9.144;2022-11-20T08:38:47;7.80;97.20
2653;DHT22;1336;48.692;9.144;2022-11-20T08:39:39;7.80;97.20
2653;DHT22;1336;48.692;9.144;2022-11-20T08:40:30;7.80;97.20
2653;DHT22;1336;48.692;9.144;2022-11-20T08:41:22;7.80;97.20
2653;DHT22;1336;48.692;9.144;2022-11-20T08:42:17;7.80;97.20
2653;DHT22;1336;48.692;9.144;2022-11-20T08:43:08;7.80;97.20
2653;DHT22;1336;48.692;9.144;2022-11-20T08:44:01;7.80;97.20
2653;DHT22;1336;48.692;9.144;2022-11-20T08:44:52;7.80;97.20
2653;DHT22;1336;48.692;9.144;2022-11-20T08:45:43;7.80;97.20
2653;DHT22;1336;48.692;9.144;2022-11-20T08:46:36;7.80;97.20
2653;DHT22;1336;48.692;9.144;2022-11-20T08:47:27;7.80;97.20
2653;DHT22;1336;48.692;9.144;2022-11-20T08:48:19;7.80;97.20
2653;DHT22;1336;48.692;9.144;2022-11-20T08:49:11;7.80;97.20
2653;DHT22;1336;48.692;9.144;2022-11-20T08:50:04;7.80;97.20
2653;DHT22;1336;48.692;9.144;2022-11-20T08:50:59;7.80;97.20
2653;DHT22;1336;48.692;9.144;2022-11-20T08:51:50;7.80;97.20
2653;DHT22;1336;48.692;9.144;2022-11-20T08:52:45;7.80;97.20
2653;DHT22;1336;48.692;9.144;2022-11-20T08:53:36;7.80;97.20
2653;DHT22;1336;48.692;9.144;2022-11-20T08:54:27;7.80;97.20
2653;DHT22;1336;48.692;9.144;2022-11-20T08:55:19;7.80;97.20
2653;DHT22;1336;48.692;9.144;2022-11-20T08:56:10;7.80;97.20
2653;DHT22;1336;48.692;9.144;2022-11-20T08:57:02;7.80;97.20
2653;DHT22;1336;48.692;9.144;2022-11-20T08:57:53;7.80;97.20
2653;DHT22;1336;48.692;9.144;2022-11-20T08:58:44;7.90;97.20
2653;DHT22;1336;48.692;9.144;2022-11-20T08:59:35;7.90;97.20
2653;DHT22;1336;48.692;9.144;2022-11-20T09:00:27;7.90;97.20
2653;DHT22;1336;48.692;9.144;2022-11-20T09:01:18;7.90;97.20
2653;DHT22;1336;48.692;9.144;2022-11-20T09:02:10;7.90;97.20
2653;DHT22;1336;48.692;9.144;2022-11-20T09:03:01;7.90;97.20
2653;DHT22;1336;48.692;9.144;2022-11-20T09:03:54;7.90;97.20
2653;DHT22;1336;48.692;9.144;2022-11-20T09:04:45;7.90;97.20
2653;DHT22;1336;48.692;9.144;2022-11-20T09:05:37;7.80;97.20
2653;DHT22;1336;48.692;9.144;2022-11-20T09:06:29;7.80;97.20
2653;DHT22;1336;48.692;9.144;2022-11-20T09:07:21;7.90;97.20
2653;DHT22;1336;48.692;9.144;2022-11-20T09:08:11;7.90;97.20
2653;DHT22;1336;48.692;9.144;2022-11-20T09:09:03;7.90;97.20
2653;DHT22;1336;48.692;9.144;2022-11-20T09:09:54;7.90;97.20
2653;DHT22;1336;48.692;9.144;2022-11-20T09:10:45;8.00;97.20
2653;DHT22;1336;48.692;9.144;2022-11-20T09:11:41;8.00;97.20
2653;DHT22;1336;48.692;9.144;2022-11-20T09:12:32;8.00;97.20
2653;DHT22;1336;48.692;9.144;2022-11-20T09:13:24;8.00;97.20
2653;DHT22;1336;48.692;9.144;2022-11-20T09:14:16;8.00;97.20
2653;DHT22;1336;48.692;9.144;2022-11-20T09:15:08;8.00;97.20
2653;DHT22;1336;48.692;9.144;2022-11-20T09:16:01;8.10;97.20
2653;DHT22;1336;48.692;9.144;2022-11-20T09:16:53;8.10;97.20
2653;DHT22;1336;48.692;9.144;2022-11-20T09:17:50;8.10;97.20
2653;DHT22;1336;48.692;9.144;2022-11-20T09:18:42;8.10;97.20
2653;DHT22;1336;48.692;9.144;2022-11-20T09:19:33;8.10;97.20
2653;DHT22;1336;48.692;9.144;2022-11-20T09:20:25;8.10;97.20
2653;DHT22;1336;48.692;9.144;2022-11-20T09:21:16;8.10;97.20
2653;DHT22;1336;48.692;9.144;2022-11-20T09:22:09;8.10;97.20
2653;DHT22;1336;48.692;9.144;2022-11-20T09:23:00;8.10;97.20
2653;DHT22;1336;48.692;9.144;2022-11-20T09:23:51;8.10;97.20
2653;DHT22;1336;48.692;9.144;2022-11-20T09:24:42;8.10;97.20
2653;DHT22;1336;48.692;9.144;2022-11-20T09:25:34;8.10;97.20
2653;DHT22;1336;48.692;9.144;2022-11-20T09:26:24;8.10;97.20
2653;DHT22;1336;48.692;9.144;2022-11-20T09:27:16;8.10;97.20
2653;DHT22;1336;48.692;9.144;2022-11-20T09:28:10;8.10;97.20
2653;DHT22;1336;48.692;9.144;2022-11-20T09:29:02;8.10;97.20
2653;DHT22;1336;48.692;9.144;2022-11-20T09:29:53;8.10;97.20
2653;DHT22;1336;48.692;9.144;2022-11-20T09:30:45;8.00;97.20
2653;DHT22;1336;48.692;9.144;2022-11-20T09:31:35;8.00;97.20
2653;DHT22;1336;48.692;9.144;2022-11-20T09:32:27;8.00;97.20
2653;DHT22;1336;48.692;9.144;2022-11-20T09:33:18;8.00;97.20
2653;DHT22;1336;48.692;9.144;2022-11-20T09:34:09;8.00;97.20
2653;DHT22;1336;48.692;9.144;2022-11-20T09:35:00;8.00;97.20
2653;DHT22;1336;48.692;9.144;2022-11-20T09:35:52;8.00;97.20
2653;DHT22;1336;48.692;9.144;2022-11-20T09:36:44;8.00;97.20
2653;DHT22;1336;48.692;9.144;2022-11-20T09:37:36;8.00;97.20
2653;DHT22;1336;48.692;9.144;2022-11-20T09:38:28;8.00;97.20
2653;DHT22;1336;48.692;9.144;2022-11-20T09:39:20;8.10;97.20
2653;DHT22;1336;48.692;9.144;2022-11-20T09:40:19;8.10;97.20
2653;DHT22;1336;48.692;9.144;2022-11-20T09:41:33;8.10;97.20
2653;DHT22;1336;48.692;9.144;2022-11-20T09:42:35;8.10;97.20
2653;DHT22;1336;48.692;9.144;2022-11-20T09:43:37;8.10;97.20
2653;DHT22;1336;48.692;9.144;2022-11-20T09:44:47;8.10;97.20
2653;DHT22;1336;48.692;9.144;2022-11-20T09:45:56;8.10;97.20
2653;DHT22;1336;48.692;9.144;2022-11-20T09:46:55;8.10;97.20
2653;DHT22;1336;48.692;9.144;2022-11-20T09:47:58;8.00;97.20
2653;DHT22;1336;48.692;9.144;2022-11-20T09:49:03;8.00;97.20
2653;DHT22;1336;48.692;9.144;2022-11-20T09:50:07;8.00;97.20
2653;DHT22;1336;48.692;9.144;2022-11-20T09:51:12;8.00;97.20
2653;DHT22;1336;48.692;9.144;2022-11-20T09:52:14;8.10;97.20
2653;DHT22;1336;48.692;9.144;2022-11-20T09:53:23;8.10;97.20
2653;DHT22;1336;48.692;9.144;2022-11-20T09:54:18;8.10;97.20
2653;DHT22;1336;48.692;9.144;2022-11-20T09:55:11;8.10;97.20
2653;DHT22;1336;48.692;9.144;2022-11-20T09:56:04;8.10;97.20
2653;DHT22;1336;48.692;9.144;2022-11-20T09:56:59;8.10;97.20
2653;DHT22;1336;48.692;9.144;2022-11-20T09:57:51;8.10;97.20
2653;DHT22;1336;48.692;9.144;2022-11-20T09:58:45;8.10;97.20
2653;DHT22;1336;48.692;9.144;2022-11-20T09:59:40;8.10;97.20
2653;DHT22;1336;48.692;9.144;2022-11-20T10:00:32;8.10;97.20
2653;DHT22;1336;48.692;9.144;2022-11-20T10:01:29;8.10;97.20
2653;DHT22;1336;48.692;9.144;2022-11-20T10:02:27;8.10;97.20
2653;DHT22;1336;48.692;9.144;2022-11-20T10:03:29;8.10;97.20
2653;DHT22;1336;48.692;9.144;2022-11-20T10:04:28;8.10;97.20
2653;DHT22;1336;48.692;9.144;2022-11-20T10:05:25;8.20;97.20
2653;DHT22;1336;48.692;9.144;2022-11-20T10:06:20;8.20;97.20
2653;DHT22;1336;48.692;9.144;2022-11-20T10:07:16;8.20;97.20
2653;DHT22;1336;48.692;9.144;2022-11-20T10:08:14;8.20;97.20
2653;DHT22;1336;48.692;9.144;2022-11-20T10:09:18;8.20;97.20
2653;DHT22;1336;48.692;9.144;2022-11-20T10:10:15;8.20;97.20
2653;DHT22;1336;48.692;9.144;2022-11-20T10:11:14;8.20;97.20
2653;DHT22;1336;48.692;9.144;2022-11-20T10:12:13;8.20;97.20
2653;DHT22;1336;48.692;9.144;2022-11-20T10:13:17;8.20;97.20
2653;DHT22;1336;48.692;9.144;2022-11-20T10:14:21;8.20;97.20
2653;DHT22;1336;48.692;9.144;2022-11-20T10:15:25;8.20;97.20
2653;DHT22;1336;48.692;9.144;2022-11-20T10:16:28;8.20;97.20
2653;DHT22;1336;48.692;9.144;2022-11-20T10:17:36;8.20;97.20
2653;DHT22;1336;48.692;9.144;2022-11-20T10:18:44;8.20;97.20
2653;DHT22;1336;48.692;9.144;2022-11-20T10:19:47;8.20;97.20
2653;DHT22;1336;48.692;9.144;2022-11-20T10:20:46;8.30;97.20
2653;DHT22;1336;48.692;9.144;2022-11-20T10:21:48;8.20;97.20
2653;DHT22;1336;48.692;9.144;2022-11-20T10:22:52;8.30;97.20
2653;DHT22;1336;48.692;9.144;2022-11-20T10:24:01;8.30;97.20
2653;DHT22;1336;48.692;9.144;2022-11-20T10:25:02;8.20;97.20
2653;DHT22;1336;48.692;9.144;2022-11-20T10:26:01;8.20;97.20
2653;DHT22;1336;48.692;9.144;2022-11-20T10:27:00;8.20;97.20
2653;DHT22;1336;48.692;9.144;2022-11-20T10:28:10;8.20;97.20
2653;DHT22;1336;48.692;9.144;2022-11-20T10:29:11;8.10;97.20
2653;DHT22;1336;48.692;9.144;2022-11-20T10:30:08;8.10;97.20
2653;DHT22;1336;48.692;9.144;2022-11-20T10:31:03;8.10;97.20
2653;DHT22;1336;48.692;9.144;2022-11-20T10:31:59;8.10;97.20
2653;DHT22;1336;48.692;9.144;2022-11-20T10:32:54;8.10;97.20
2653;DHT22;1336;48.692;9.144;2022-11-20T10:33:45;8.20;97.20
2653;DHT22;1336;48.692;9.144;2022-11-20T10:34:46;8.20;97.20
2653;DHT22;1336;48.692;9.144;2022-11-20T10:35:42;8.20;97.20
2653;DHT22;1336;48.692;9.144;2022-11-20T10:36:36;8.20;97.20
2653;DHT22;1336;48.692;9.144;2022-11-20T10:37:30;8.20;97.20
2653;DHT22;1336;48.692;9.144;2022-11-20T10:38:26;8.30;97.20
2653;DHT22;1336;48.692;9.144;2022-11-20T10:39:25;8.30;97.20
2653;DHT22;1336;48.692;9.144;2022-11-20T10:40:27;8.30;97.20
2653;DHT22;1336;48.692;9.144;2022-11-20T10:41:23;8.30;97.20
2653;DHT22;1336;48.692;9.144;2022-11-20T10:42:31;8.30;97.20
2653;DHT22;1336;48.692;9.144;2022-11-20T10:43:31;8.30;97.20
2653;DHT22;1336;48.692;9.144;2022-11-20T10:44:27;8.30;97.20
2653;DHT22;1336;48.692;9.144;2022-11-20T10:45:43;8.30;97.20
2653;DHT22;1336;48.692;9.144;2022-11-20T10:46:39;8.30;97.20
2653;DHT22;1336;48.692;9.144;2022-11-20T10:47:31;8.30;97.20
2653;DHT22;1336;48.692;9.144;2022-11-20T10:48:24;8.30;97.20
2653;DHT22;1336;48.692;9.144;2022-11-20T10:49:17;8.40;97.20
2653;DHT22;1336;48.692;9.144;2022-11-20T10:50:14;8.40;97.20
2653;DHT22;1336;48.692;9.144;2022-11-20T10:51:15;8.40;97.20
2653;DHT22;1336;48.692;9.144;2022-11-20T10:52:15;8.40;97.20
2653;DHT22;1336;48.692;9.144;2022-11-20T10:53:16;8.40;97.20
2653;DHT22;1336;48.692;9.144;2022-11-20T10:54:17;8.40;97.20
2653;DHT22;1336;48.692;9.144;2022-11-20T10:55:24;8.40;97.20
2653;DHT22;1336;48.692;9.144;2022-11-20T10:56:20;8.40;97.20
2653;DHT22;1336;48.692;9.144;2022-11-20T10:57:20;8.40;97.20
2653;DHT22;1336;48.692;9.144;2022-11-20T10:58:21;8.40;97.20
2653;DHT22;1336;48.692;9.144;2022-11-20T10:59:35;8.40;97.20
2653;DHT22;1336;48.692;9.144;2022-11-20T11:00:31;8.40;97.20
2653;DHT22;1336;48.692;9.144;2022-11-20T11:01:22;8.40;97.20
2653;DHT22;1336;48.692;9.144;2022-11-20T11:02:19;8.40;97.20
2653;DHT22;1336;48.692;9.144;2022-11-20T11:03:22;8.40;97.20
2653;DHT22;1336;48.692;9.144;2022-11-20T11:04:28;8.40;97.20
2653;DHT22;1336;48.692;9.144;2022-11-20T11:05:32;8.40;97.20
2653;DHT22;1336;48.692;9.144;2022-11-20T11:06:31;8.40;97.20
2653;DHT22;1336;48.692;9.144;2022-11-20T11:07:25;8.40;97.20
2653;DHT22;1336;48.692;9.144;2022-11-20T11:08:19;8.40;97.20
2653;DHT22;1336;48.692;9.144;2022-11-20T11:09:13;8.40;97.20
2653;DHT22;1336;48.692;9.144;2022-11-20T11:11:18;8.50;97.20
2653;DHT22;1336;48.692;9.144;2022-11-20T11:12:11;8.50;97.20
2653;DHT22;1336;48.692;9.144;2022-11-20T11:13:02;8.50;97.20
2653;DHT22;1336;48.692;9.144;2022-11-20T11:14:04;8.60;97.20
2653;DHT22;1336;48.692;9.144;2022-11-20T11:14:56;8.60;97.20
2653;DHT22;1336;48.692;9.144;2022-11-20T11:15:48;8.60;97.20
2653;DHT22;1336;48.692;9.144;2022-11-20T11:16:49;8.70;97.20
2653;DHT22;1336;48.692;9.144;2022-11-20T11:17:47;8.80;97.20
2653;DHT22;1336;48.692;9.144;2022-11-20T11:18:38;8.80;97.20
2653;DHT22;1336;48.692;9.144;2022-11-20T11:19:30;8.90;97.20
2653;DHT22;1336;48.692;9.144;2022-11-20T11:20:23;8.90;97.20
2653;DHT22;1336;48.692;9.144;2022-11-20T11:21:21;8.90;97.20
2653;DHT22;1336;48.692;9.144;2022-11-20T11:22:16;9.00;97.20
2653;DHT22;1336;48.692;9.144;2022-11-20T11:23:26;9.00;97.20
2653;DHT22;1336;48.692;9.144;2022-11-20T11:24:22;9.00;97.20
2653;DHT22;1336;48.692;9.144;2022-11-20T11:25:25;9.00;97.20
2653;DHT22;1336;48.692;9.144;2022-11-20T11:26:21;9.00;97.20
2653;DHT22;1336;48.692;9.144;2022-11-20T11:27:14;9.00;97.20
2653;DHT22;1336;48.692;9.144;2022-11-20T11:28:20;9.00;97.20
2653;DHT22;1336;48.692;9.144;2022-11-20T11:29:17;9.00;97.20
2653;DHT22;1336;48.692;9.144;2022-11-20T11:30:13;9.00;97.20
2653;DHT22;1336;48.692;9.144;2022-11-20T11:31:05;9.10;97.20
2653;DHT22;1336;48.692;9.144;2022-11-20T11:32:15;9.10;97.20
2653;DHT22;1336;48.692;9.144;2022-11-20T11:33:10;9.20;97.20
2653;DHT22;1336;48.692;9.144;2022-11-20T11:34:05;9.30;97.20
2653;DHT22;1336;48.692;9.144;2022-11-20T11:35:01;9.30;97.20
2653;DHT22;1336;48.692;9.144;2022-11-20T11:35:54;9.40;97.20
2653;DHT22;1336;48.692;9.144;2022-11-20T11:36:54;9.40;97.20
2653;DHT22;1336;48.692;9.144;2022-11-20T11:37:46;9.40;97.20
2653;DHT22;1336;48.692;9.144;2022-11-20T11:38:41;9.50;97.20
2653;DHT22;1336;48.692;9.144;2022-11-20T11:39:33;9.50;97.20
2653;DHT22;1336;48.692;9.144;2022-11-20T11:40:25;9.60;97.20
2653;DHT22;1336;48.692;9.144;2022-11-20T11:41:25;9.60;97.20
2653;DHT22;1336;48.692;9.144;2022-11-20T11:42:19;9.60;97.20
2653;DHT22;1336;48.692;9.144;2022-11-20T11:43:18;9.60;97.20
2653;DHT22;1336;48.692;9.144;2022-11-20T11:44:28;9.60;97.20
2653;DHT22;1336;48.692;9.144;2022-11-20T11:45:39;9.60;97.20
2653;DHT22;1336;48.692;9.144;2022-11-20T11:46:32;9.70;97.20
2653;DHT22;1336;48.692;9.144;2022-11-20T11:47:25;9.80;97.20
2653;DHT22;1336;48.692;9.144;2022-11-20T11:48:17;10.00;97.20
2653;DHT22;1336;48.692;9.144;2022-11-20T11:49:16;10.20;97.20
2653;DHT22;1336;48.692;9.144;2022-11-20T11:50:16;10.60;97.20
2653;DHT22;1336;48.692;9.144;2022-11-20T11:51:08;11.00;97.20
2653;DHT22;1336;48.692;9.144;2022-11-20T11:52:04;11.40;97.20
2653;DHT22;1336;48.692;9.144;2022-11-20T11:53:07;11.90;97.20
2653;DHT22;1336;48.692;9.144;2022-11-20T11:54:01;12.40;97.20
2653;DHT22;1336;48.692;9.144;2022-11-20T11:54:55;12.80;97.20
2653;DHT22;1336;48.692;9.144;2022-11-20T11:55:54;13.20;97.20
2653;DHT22;1336;48.692;9.144;2022-11-20T11:56:47;13.60;97.20
2653;DHT22;1336;48.692;9.144;2022-11-20T11:57:46;14.00;97.20
2653;DHT22;1336;48.692;9.144;2022-11-20T11:58:43;14.30;97.20
2653;DHT22;1336;48.692;9.144;2022-11-20T11:59:45;14.60;97.20
2653;DHT22;1336;48.692;9.144;2022-11-20T12:00:40;14.80;97.20
2653;DHT22;1336;48.692;9.144;2022-11-20T12:01:36;14.90;97.20